sensor_id;sensor_type;location;lat;lon;timestamp;P1;durP1;ratioP1;P2;durP2;ratioP2
2884;SDS011;54691;48.262;11.586;2023-06-22T00:03:00;9.75;;;4.75;;
2884;SDS011;54691;48.262;11.586;2023-06-22T00:09:57;12.43;;;5.28;;
2884;SDS011;54691;48.262;11.586;2023-06-22T00:16:54;14.33;;;4.50;;
2884;SDS011;54691;48.262;11.586;2023-06-22T00:23:56;13.85;;;4.00;;
2884;SDS011;54691;48.262;11.586;2023-06-22T00:30:53;14.30;;;4.35;;
2884;SDS011;54691;48.262;11.586;2023-06-22T00:37:50;13.60;;;4.50;;
2884;SDS011;54691;48.262;11.586;2023-06-22T00:44:47;11.22;;;4.22;;
2884;SDS011;54691;48.262;11.586;2023-06-22T00:51:44;10.98;;;4.67;;
2884;SDS011;54691;48.262;11.586;2023-06-22T00:58:45;16.10;;;4.97;;
2884;SDS011;54691;48.262;11.586;2023-06-22T01:05:43;11.70;;;4.62;;
2884;SDS011;54691;48.262;11.586;2023-06-22T01:12:44;8.60;;;4.10;;
2884;SDS011;54691;48.262;11.586;2023-06-22T01:19:45;14.70;;;4.33;;
2884;SDS011;54691;48.262;11.586;2023-06-22T01:30:29;14.47;;;5.00;;
2884;SDS011;54691;48.262;11.586;2023-06-22T01:37:27;8.60;;;4.30;;
2884;SDS011;54691;48.262;11.586;2023-06-22T01:44:25;11.30;;;5.28;;
2884;SDS011;54691;48.262;11.586;2023-06-22T01:51:22;8.48;;;4.00;;
2884;SDS011;54691;48.262;11.586;2023-06-22T01:58:20;10.58;;;4.55;;
2884;SDS011;54691;48.262;11.586;2023-06-22T02:05:17;8.35;;;4.05;;
2884;SDS011;54691;48.262;11.586;2023-06-22T02:12:17;12.35;;;4.40;;
2884;SDS011;54691;48.262;11.586;2023-06-22T02:19:14;11.45;;;4.50;;
2884;SDS011;54691;48.262;11.586;2023-06-22T02:26:12;13.08;;;4.30;;
2884;SDS011;54691;48.262;11.586;2023-06-22T02:33:09;11.85;;;4.80;;
2884;SDS011;54691;48.262;11.586;2023-06-22T02:40:06;11.40;;;4.47;;
2884;SDS011;54691;48.262;11.586;2023-06-22T02:47:04;17.55;;;5.62;;
2884;SDS011;54691;48.262;11.586;2023-06-22T02:54:01;14.15;;;5.42;;
2884;SDS011;54691;48.262;11.586;2023-06-22T03:00:58;13.18;;;5.12;;
2884;SDS011;54691;48.262;11.586;2023-06-22T03:07:58;10.95;;;4.45;;
2884;SDS011;54691;48.262;11.586;2023-06-22T03:14:55;10.98;;;5.30;;
2884;SDS011;54691;48.262;11.586;2023-06-22T03:21:52;12.82;;;4.42;;
2884;SDS011;54691;48.262;11.586;2023-06-22T03:28:49;17.00;;;5.67;;
2884;SDS011;54691;48.262;11.586;2023-06-22T03:35:46;10.18;;;5.20;;
2884;SDS011;54691;48.262;11.586;2023-06-22T03:42:43;7.85;;;4.75;;
2884;SDS011;54691;48.262;11.586;2023-06-22T03:49:40;10.65;;;4.83;;
2884;SDS011;54691;48.262;11.586;2023-06-22T04:00:16;13.00;;;5.60;;
2884;SDS011;54691;48.262;11.586;2023-06-22T04:07:15;10.45;;;4.72;;
2884;SDS011;54691;48.262;11.586;2023-06-22T04:14:13;11.90;;;5.75;;
2884;SDS011;54691;48.262;11.586;2023-06-22T04:21:10;8.95;;;4.40;;
2884;SDS011;54691;48.262;11.586;2023-06-22T04:28:07;13.98;;;4.75;;
2884;SDS011;54691;48.262;11.586;2023-06-22T04:35:06;9.60;;;4.97;;
2884;SDS011;54691;48.262;11.586;2023-06-22T04:42:03;14.33;;;5.00;;
2884;SDS011;54691;48.262;11.586;2023-06-22T04:49:00;18.10;;;5.30;;
2884;SDS011;54691;48.262;11.586;2023-06-22T04:55:57;11.25;;;4.47;;
2884;SDS011;54691;48.262;11.586;2023-06-22T05:02:55;7.83;;;4.12;;
2884;SDS011;54691;48.262;11.586;2023-06-22T05:09:53;12.68;;;4.87;;
2884;SDS011;54691;48.262;11.586;2023-06-22T05:16:52;8.73;;;4.37;;
2884;SDS011;54691;48.262;11.586;2023-06-22T05:23:50;12.68;;;5.00;;
2884;SDS011;54691;48.262;11.586;2023-06-22T05:30:47;10.45;;;4.78;;
2884;SDS011;54691;48.262;11.586;2023-06-22T05:37:43;14.47;;;4.47;;
2884;SDS011;54691;48.262;11.586;2023-06-22T05:44:41;9.50;;;4.47;;
2884;SDS011;54691;48.262;11.586;2023-06-22T05:51:38;12.63;;;4.35;;
2884;SDS011;54691;48.262;11.586;2023-06-22T05:58:36;17.00;;;4.92;;
2884;SDS011;54691;48.262;11.586;2023-06-22T06:05:33;11.15;;;3.90;;
2884;SDS011;54691;48.262;11.586;2023-06-22T06:12:30;16.50;;;4.40;;
2884;SDS011;54691;48.262;11.586;2023-06-22T06:19:28;13.18;;;4.35;;
2884;SDS011;54691;48.262;11.586;2023-06-22T06:26:25;15.55;;;4.50;;
2884;SDS011;54691;48.262;11.586;2023-06-22T06:33:26;10.53;;;4.40;;
2884;SDS011;54691;48.262;11.586;2023-06-22T06:40:23;11.90;;;4.90;;
2884;SDS011;54691;48.262;11.586;2023-06-22T06:47:20;9.90;;;4.33;;
2884;SDS011;54691;48.262;11.586;2023-06-22T06:54:17;10.68;;;4.12;;
2884;SDS011;54691;48.262;11.586;2023-06-22T07:01:17;11.10;;;4.72;;
2884;SDS011;54691;48.262;11.586;2023-06-22T07:08:16;9.55;;;4.20;;
2884;SDS011;54691;48.262;11.586;2023-06-22T07:15:13;16.05;;;3.98;;
2884;SDS011;54691;48.262;11.586;2023-06-22T07:22:10;12.80;;;3.55;;
2884;SDS011;54691;48.262;11.586;2023-06-22T07:29:07;12.60;;;3.80;;
2884;SDS011;54691;48.262;11.586;2023-06-22T07:36:04;15.60;;;3.50;;
2884;SDS011;54691;48.262;11.586;2023-06-22T07:43:05;9.30;;;4.42;;
2884;SDS011;54691;48.262;11.586;2023-06-22T07:50:02;15.35;;;5.08;;
2884;SDS011;54691;48.262;11.586;2023-06-22T07:56:59;15.78;;;4.58;;
2884;SDS011;54691;48.262;11.586;2023-06-22T08:03:57;16.60;;;4.70;;
2884;SDS011;54691;48.262;11.586;2023-06-22T08:10:54;20.02;;;4.78;;
2884;SDS011;54691;48.262;11.586;2023-06-22T08:17:51;9.38;;;3.85;;
2884;SDS011;54691;48.262;11.586;2023-06-22T08:24:48;15.88;;;4.72;;
2884;SDS011;54691;48.262;11.586;2023-06-22T08:31:45;11.15;;;3.85;;
2884;SDS011;54691;48.262;11.586;2023-06-22T08:38:42;17.85;;;4.40;;
2884;SDS011;54691;48.262;11.586;2023-06-22T08:45:40;15.35;;;4.15;;
2884;SDS011;54691;48.262;11.586;2023-06-22T08:49:09;15.63;;;4.97;;
2884;SDS011;54691;48.262;11.586;2023-06-22T08:56:08;17.02;;;4.35;;
2884;SDS011;54691;48.262;11.586;2023-06-22T09:03:05;20.08;;;4.65;;
2884;SDS011;54691;48.262;11.586;2023-06-22T09:10:02;18.07;;;4.62;;
2884;SDS011;54691;48.262;11.586;2023-06-22T09:17:02;18.50;;;5.20;;
2884;SDS011;54691;48.262;11.586;2023-06-22T09:23:59;13.80;;;4.70;;
2884;SDS011;54691;48.262;11.586;2023-06-22T09:30:56;15.45;;;4.75;;
2884;SDS011;54691;48.262;11.586;2023-06-22T09:37:55;10.82;;;4.75;;
2884;SDS011;54691;48.262;11.586;2023-06-22T09:44:52;20.35;;;4.97;;
2884;SDS011;54691;48.262;11.586;2023-06-22T09:51:48;18.20;;;5.30;;
2884;SDS011;54691;48.262;11.586;2023-06-22T09:58:46;19.15;;;5.08;;
2884;SDS011;54691;48.262;11.586;2023-06-22T10:05:45;17.00;;;4.55;;
2884;SDS011;54691;48.262;11.586;2023-06-22T10:12:46;21.20;;;4.92;;
2884;SDS011;54691;48.262;11.586;2023-06-22T10:19:41;15.70;;;4.20;;
2884;SDS011;54691;48.262;11.586;2023-06-22T10:26:38;14.35;;;4.25;;
2884;SDS011;54691;48.262;11.586;2023-06-22T10:33:35;20.32;;;4.42;;
2884;SDS011;54691;48.262;11.586;2023-06-22T10:40:32;21.68;;;4.53;;
2884;SDS011;54691;48.262;11.586;2023-06-22T10:47:29;17.60;;;4.53;;
2884;SDS011;54691;48.262;11.586;2023-06-22T10:54:27;15.10;;;4.53;;
2884;SDS011;54691;48.262;11.586;2023-06-22T11:01:24;18.07;;;4.90;;
2884;SDS011;54691;48.262;11.586;2023-06-22T11:08:21;24.67;;;4.83;;
2884;SDS011;54691;48.262;11.586;2023-06-22T11:15:20;18.27;;;4.75;;
2884;SDS011;54691;48.262;11.586;2023-06-22T11:22:17;18.52;;;5.10;;
2884;SDS011;54691;48.262;11.586;2023-06-22T11:29:14;12.55;;;4.53;;
2884;SDS011;54691;48.262;11.586;2023-06-22T11:36:11;15.80;;;4.28;;
2884;SDS011;54691;48.262;11.586;2023-06-22T11:43:09;16.77;;;4.85;;
2884;SDS011;54691;48.262;11.586;2023-06-22T11:50:06;19.35;;;4.85;;
2884;SDS011;54691;48.262;11.586;2023-06-22T11:57:03;16.02;;;4.28;;
2884;SDS011;54691;48.262;11.586;2023-06-22T12:04:00;19.62;;;4.70;;
2884;SDS011;54691;48.262;11.586;2023-06-22T12:10:59;18.37;;;4.42;;
2884;SDS011;54691;48.262;11.586;2023-06-22T12:17:56;10.80;;;4.12;;
2884;SDS011;54691;48.262;11.586;2023-06-22T12:24:53;18.87;;;4.08;;
2884;SDS011;54691;48.262;11.586;2023-06-22T12:31:51;14.65;;;4.53;;
2884;SDS011;54691;48.262;11.586;2023-06-22T12:38:48;17.65;;;4.80;;
2884;SDS011;54691;48.262;11.586;2023-06-22T12:45:45;16.55;;;4.22;;
2884;SDS011;54691;48.262;11.586;2023-06-22T12:52:42;18.32;;;4.65;;
2884;SDS011;54691;48.262;11.586;2023-06-22T12:59:39;10.82;;;4.30;;
2884;SDS011;54691;48.262;11.586;2023-06-22T13:06:36;26.68;;;5.37;;
2884;SDS011;54691;48.262;11.586;2023-06-22T13:13:33;19.65;;;4.20;;
2884;SDS011;54691;48.262;11.586;2023-06-22T13:20:30;13.05;;;4.05;;
2884;SDS011;54691;48.262;11.586;2023-06-22T13:27:27;18.95;;;4.20;;
2884;SDS011;54691;48.262;11.586;2023-06-22T13:34:24;15.83;;;5.00;;
2884;SDS011;54691;48.262;11.586;2023-06-22T13:41:21;21.85;;;4.03;;
2884;SDS011;54691;48.262;11.586;2023-06-22T13:48:18;20.60;;;4.83;;
2884;SDS011;54691;48.262;11.586;2023-06-22T13:55:18;26.02;;;4.42;;
2884;SDS011;54691;48.262;11.586;2023-06-22T14:02:16;20.37;;;4.95;;
2884;SDS011;54691;48.262;11.586;2023-06-22T14:09:14;19.65;;;4.15;;
2884;SDS011;54691;48.262;11.586;2023-06-22T14:16:12;16.52;;;4.75;;
2884;SDS011;54691;48.262;11.586;2023-06-22T14:23:09;29.80;;;5.45;;
2884;SDS011;54691;48.262;11.586;2023-06-22T14:30:06;16.35;;;4.95;;
2884;SDS011;54691;48.262;11.586;2023-06-22T14:37:03;24.60;;;5.12;;
2884;SDS011;54691;48.262;11.586;2023-06-22T14:44:01;14.30;;;5.00;;
2884;SDS011;54691;48.262;11.586;2023-06-22T14:50:58;12.88;;;4.60;;
2884;SDS011;54691;48.262;11.586;2023-06-22T14:57:58;16.93;;;4.80;;
2884;SDS011;54691;48.262;11.586;2023-06-22T15:04:55;16.30;;;4.90;;
2884;SDS011;54691;48.262;11.586;2023-06-22T15:11:53;15.40;;;5.28;;
2884;SDS011;54691;48.262;11.586;2023-06-22T15:18:50;15.95;;;5.05;;
2884;SDS011;54691;48.262;11.586;2023-06-22T15:25:47;17.65;;;5.45;;
2884;SDS011;54691;48.262;11.586;2023-06-22T15:32:44;16.02;;;4.65;;
2884;SDS011;54691;48.262;11.586;2023-06-22T15:39:42;17.05;;;4.03;;
2884;SDS011;54691;48.262;11.586;2023-06-22T15:46:40;17.67;;;4.62;;
2884;SDS011;54691;48.262;11.586;2023-06-22T15:53:37;12.33;;;4.45;;
2884;SDS011;54691;48.262;11.586;2023-06-22T16:00:34;18.27;;;4.60;;
2884;SDS011;54691;48.262;11.586;2023-06-22T16:07:32;24.12;;;4.70;;
2884;SDS011;54691;48.262;11.586;2023-06-22T16:14:29;15.28;;;4.83;;
2884;SDS011;54691;48.262;11.586;2023-06-22T16:21:26;13.80;;;4.17;;
2884;SDS011;54691;48.262;11.586;2023-06-22T16:28:23;21.07;;;4.83;;
2884;SDS011;54691;48.262;11.586;2023-06-22T16:35:20;14.58;;;4.15;;
2884;SDS011;54691;48.262;11.586;2023-06-22T16:42:17;25.72;;;5.53;;
2884;SDS011;54691;48.262;11.586;2023-06-22T16:49:15;20.00;;;5.20;;
2884;SDS011;54691;48.262;11.586;2023-06-22T16:56:14;21.05;;;4.90;;
2884;SDS011;54691;48.262;11.586;2023-06-22T17:03:12;39.27;;;5.30;;
2884;SDS011;54691;48.262;11.586;2023-06-22T17:10:09;23.18;;;4.50;;
2884;SDS011;54691;48.262;11.586;2023-06-22T17:17:06;15.18;;;4.25;;
2884;SDS011;54691;48.262;11.586;2023-06-22T17:24:04;17.40;;;4.30;;
2884;SDS011;54691;48.262;11.586;2023-06-22T17:31:10;13.98;;;2.87;;
2884;SDS011;54691;48.262;11.586;2023-06-22T17:38:00;13.40;;;4.67;;
2884;SDS011;54691;48.262;11.586;2023-06-22T17:45:01;10.58;;;2.65;;
2884;SDS011;54691;48.262;11.586;2023-06-22T17:52:00;27.22;;;3.83;;
2884;SDS011;54691;48.262;11.586;2023-06-22T17:58:57;8.85;;;2.20;;
2884;SDS011;54691;48.262;11.586;2023-06-22T18:05:54;8.78;;;2.50;;
2884;SDS011;54691;48.262;11.586;2023-06-22T18:12:51;7.97;;;2.65;;
2884;SDS011;54691;48.262;11.586;2023-06-22T18:19:48;17.98;;;2.77;;
2884;SDS011;54691;48.262;11.586;2023-06-22T18:26:46;16.70;;;3.00;;
2884;SDS011;54691;48.262;11.586;2023-06-22T18:33:43;11.65;;;3.25;;
2884;SDS011;54691;48.262;11.586;2023-06-22T18:40:48;18.67;;;3.33;;
2884;SDS011;54691;48.262;11.586;2023-06-22T18:47:39;19.87;;;3.77;;
2884;SDS011;54691;48.262;11.586;2023-06-22T18:54:40;30.02;;;5.35;;
2884;SDS011;54691;48.262;11.586;2023-06-22T19:01:37;20.95;;;4.80;;
2884;SDS011;54691;48.262;11.586;2023-06-22T19:12:22;30.80;;;4.70;;
2884;SDS011;54691;48.262;11.586;2023-06-22T19:19:21;20.70;;;3.58;;
2884;SDS011;54691;48.262;11.586;2023-06-22T19:26:18;13.43;;;3.92;;
2884;SDS011;54691;48.262;11.586;2023-06-22T19:33:17;12.98;;;3.83;;
2884;SDS011;54691;48.262;11.586;2023-06-22T19:40:14;18.12;;;4.87;;
2884;SDS011;54691;48.262;11.586;2023-06-22T19:47:12;21.05;;;5.55;;
2884;SDS011;54691;48.262;11.586;2023-06-22T19:54:11;32.03;;;7.28;;
2884;SDS011;54691;48.262;11.586;2023-06-22T20:01:08;30.48;;;5.35;;
2884;SDS011;54691;48.262;11.586;2023-06-22T20:08:13;16.65;;;3.58;;
2884;SDS011;54691;48.262;11.586;2023-06-22T20:18:40;10.13;;;2.90;;
2884;SDS011;54691;48.262;11.586;2023-06-22T20:25:38;6.72;;;2.70;;
2884;SDS011;54691;48.262;11.586;2023-06-22T20:32:45;15.83;;;4.45;;
2884;SDS011;54691;48.262;11.586;2023-06-22T20:39:35;20.00;;;6.33;;
2884;SDS011;54691;48.262;11.586;2023-06-22T20:46:32;18.95;;;5.95;;
2884;SDS011;54691;48.262;11.586;2023-06-22T20:53:29;27.75;;;5.22;;
2884;SDS011;54691;48.262;11.586;2023-06-22T21:00:26;10.50;;;2.60;;
2884;SDS011;54691;48.262;11.586;2023-06-22T21:07:23;26.95;;;5.97;;
2884;SDS011;54691;48.262;11.586;2023-06-22T21:14:21;16.60;;;3.80;;
2884;SDS011;54691;48.262;11.586;2023-06-22T21:21:18;18.23;;;4.37;;
2884;SDS011;54691;48.262;11.586;2023-06-22T21:28:17;14.43;;;3.35;;
2884;SDS011;54691;48.262;11.586;2023-06-22T21:35:16;16.00;;;4.95;;
2884;SDS011;54691;48.262;11.586;2023-06-22T21:42:13;16.07;;;4.45;;
2884;SDS011;54691;48.262;11.586;2023-06-22T21:49:10;9.15;;;3.75;;
2884;SDS011;54691;48.262;11.586;2023-06-22T21:56:07;12.18;;;4.45;;
2884;SDS011;54691;48.262;11.586;2023-06-22T22:03:04;15.78;;;3.58;;
2884;SDS011;54691;48.262;11.586;2023-06-22T22:13:38;13.35;;;5.10;;
2884;SDS011;54691;48.262;11.586;2023-06-22T22:20:36;20.23;;;3.60;;
2884;SDS011;54691;48.262;11.586;2023-06-22T22:27:33;16.67;;;4.10;;
2884;SDS011;54691;48.262;11.586;2023-06-22T22:34:30;11.78;;;3.50;;
2884;SDS011;54691;48.262;11.586;2023-06-22T22:41:28;15.05;;;4.12;;
2884;SDS011;54691;48.262;11.586;2023-06-22T22:48:25;10.05;;;3.08;;
2884;SDS011;54691;48.262;11.586;2023-06-22T22:55:22;8.40;;;3.47;;
2884;SDS011;54691;48.262;11.586;2023-06-22T23:02:19;11.57;;;2.95;;
2884;SDS011;54691;48.262;11.586;2023-06-22T23:09:20;6.80;;;2.25;;
2884;SDS011;54691;48.262;11.586;2023-06-22T23:16:17;6.80;;;2.12;;
2884;SDS011;54691;48.262;11.586;2023-06-22T23:23:15;9.68;;;2.30;;
2884;SDS011;54691;48.262;11.586;2023-06-22T23:30:14;5.42;;;1.85;;
2884;SDS011;54691;48.262;11.586;2023-06-22T23:37:13;5.45;;;1.75;;
2884;SDS011;54691;48.262;11.586;2023-06-22T23:44:10;4.87;;;1.27;;
2884;SDS011;54691;48.262;11.586;2023-06-22T23:51:07;4.62;;;2.05;;
2884;SDS011;54691;48.262;11.586;2023-06-22T23:58:04;4.70;;;1.75;;
